Terminal Aerodrome Forecast
Issued by NWS Grand Forks, ND

Home | Current Version | Previous Version | Text Only | Print | Product List | Glossary Off
Versions: 1 2 3 4 5 6 7 8 9 10 11 12 13 14 15

048
FTUS43 KFGF 271837 AAA
TAFFAR
TAF AMD
KFAR 271837Z 2719/2818 VRB15G25KT 1SM TSRA SCT025CB OVC040
      TEMPO 2719/2720 4SM -TSRA BKN025CB
     FM272000 18009KT P6SM VCTS BKN040CB BKN130
     FM280200 15006KT P6SM FEW250
     FM281500 14012KT P6SM SCT200=

USA.gov is the U.S. government's official web portal to all federal, state and local government web resources and services.